sensor_id;sensor_type;location;lat;lon;timestamp;P1;durP1;ratioP1;P2;durP2;ratioP2
64342;SDS011;50675;53.530;-6.312;2023-04-20T06:26:50;10.63;;;5.10;;
64342;SDS011;50675;53.530;-6.312;2023-04-20T06:29:15;9.27;;;4.38;;
64342;SDS011;50675;53.530;-6.312;2023-04-20T06:31:41;12.50;;;4.50;;
64342;SDS011;50675;53.530;-6.312;2023-04-20T06:34:07;8.55;;;4.15;;
64342;SDS011;50675;53.530;-6.312;2023-04-20T06:36:33;7.75;;;4.20;;
64342;SDS011;50675;53.530;-6.312;2023-04-20T06:38:59;12.23;;;4.07;;
64342;SDS011;50675;53.530;-6.312;2023-04-20T06:41:25;11.57;;;4.40;;
64342;SDS011;50675;53.530;-6.312;2023-04-20T06:43:51;18.15;;;4.88;;
64342;SDS011;50675;53.530;-6.312;2023-04-20T06:46:16;14.60;;;4.65;;
64342;SDS011;50675;53.530;-6.312;2023-04-20T06:48:42;10.68;;;4.72;;
64342;SDS011;50675;53.530;-6.312;2023-04-20T06:51:08;12.48;;;5.10;;
64342;SDS011;50675;53.530;-6.312;2023-04-20T06:53:34;10.60;;;3.88;;
64342;SDS011;50675;53.530;-6.312;2023-04-20T06:56:00;12.30;;;4.47;;
64342;SDS011;50675;53.530;-6.312;2023-04-20T06:58:26;11.40;;;4.32;;
64342;SDS011;50675;53.530;-6.312;2023-04-20T07:00:51;11.85;;;3.92;;
64342;SDS011;50675;53.530;-6.312;2023-04-20T07:03:17;10.35;;;4.45;;
64342;SDS011;50675;53.530;-6.312;2023-04-20T07:05:43;8.65;;;4.07;;
64342;SDS011;50675;53.530;-6.312;2023-04-20T07:08:09;9.85;;;4.35;;
64342;SDS011;50675;53.530;-6.312;2023-04-20T07:10:35;10.75;;;4.45;;
64342;SDS011;50675;53.530;-6.312;2023-04-20T07:23:00;10.15;;;4.45;;
64342;SDS011;50675;53.530;-6.312;2023-04-20T07:26:51;10.45;;;3.75;;
64342;SDS011;50675;53.530;-6.312;2023-04-20T07:30:27;11.18;;;4.05;;
64342;SDS011;50675;53.530;-6.312;2023-04-20T07:47:59;14.60;;;4.90;;
64342;SDS011;50675;53.530;-6.312;2023-04-20T07:54:01;12.32;;;5.03;;
64342;SDS011;50675;53.530;-6.312;2023-04-20T07:56:54;8.32;;;4.05;;
64342;SDS011;50675;53.530;-6.312;2023-04-20T08:00:03;10.80;;;4.60;;
64342;SDS011;50675;53.530;-6.312;2023-04-20T08:02:46;10.30;;;4.47;;
64342;SDS011;50675;53.530;-6.312;2023-04-20T08:05:43;9.52;;;4.72;;
64342;SDS011;50675;53.530;-6.312;2023-04-20T08:11:43;12.90;;;4.60;;
64342;SDS011;50675;53.530;-6.312;2023-04-20T08:14:42;12.13;;;5.25;;
64342;SDS011;50675;53.530;-6.312;2023-04-20T08:17:42;13.60;;;5.13;;
64342;SDS011;50675;53.530;-6.312;2023-04-20T08:24:11;11.25;;;4.55;;
64342;SDS011;50675;53.530;-6.312;2023-04-20T08:27:06;9.82;;;4.53;;
64342;SDS011;50675;53.530;-6.312;2023-04-20T08:30:10;12.60;;;4.78;;
64342;SDS011;50675;53.530;-6.312;2023-04-20T08:33:23;11.00;;;4.78;;
64342;SDS011;50675;53.530;-6.312;2023-04-20T08:36:54;13.02;;;5.40;;
64342;SDS011;50675;53.530;-6.312;2023-04-20T08:48:15;8.88;;;4.50;;
64342;SDS011;50675;53.530;-6.312;2023-04-20T08:51:31;7.38;;;3.75;;
64342;SDS011;50675;53.530;-6.312;2023-04-20T08:54:31;9.90;;;4.65;;
64342;SDS011;50675;53.530;-6.312;2023-04-20T09:05:05;12.20;;;4.78;;
64342;SDS011;50675;53.530;-6.312;2023-04-20T09:07:49;9.00;;;4.28;;
64342;SDS011;50675;53.530;-6.312;2023-04-20T09:11:18;10.50;;;4.50;;
64342;SDS011;50675;53.530;-6.312;2023-04-20T09:17:48;12.00;;;4.63;;
64342;SDS011;50675;53.530;-6.312;2023-04-20T09:20:49;14.10;;;5.47;;
64342;SDS011;50675;53.530;-6.312;2023-04-20T09:24:12;7.85;;;4.28;;
64342;SDS011;50675;53.530;-6.312;2023-04-20T09:31:04;10.90;;;5.05;;
64342;SDS011;50675;53.530;-6.312;2023-04-20T09:34:51;14.90;;;5.75;;
64342;SDS011;50675;53.530;-6.312;2023-04-20T09:38:14;10.57;;;4.35;;
64342;SDS011;50675;53.530;-6.312;2023-04-20T09:41:44;11.13;;;5.30;;
64342;SDS011;50675;53.530;-6.312;2023-04-20T09:45:15;15.13;;;5.03;;
64342;SDS011;50675;53.530;-6.312;2023-04-20T09:52:06;15.25;;;5.47;;
64342;SDS011;50675;53.530;-6.312;2023-04-20T09:55:19;10.95;;;5.38;;
64342;SDS011;50675;53.530;-6.312;2023-04-20T09:58:39;13.20;;;5.22;;
64342;SDS011;50675;53.530;-6.312;2023-04-20T10:02:27;12.85;;;5.50;;
64342;SDS011;50675;53.530;-6.312;2023-04-20T10:06:29;12.68;;;4.90;;
64342;SDS011;50675;53.530;-6.312;2023-04-20T10:21:51;12.80;;;4.80;;
64342;SDS011;50675;53.530;-6.312;2023-04-20T10:51:53;10.27;;;4.38;;
64342;SDS011;50675;53.530;-6.312;2023-04-20T10:54:35;11.33;;;4.80;;
64342;SDS011;50675;53.530;-6.312;2023-04-20T11:01:30;9.00;;;4.68;;
64342;SDS011;50675;53.530;-6.312;2023-04-20T11:35:34;12.32;;;4.55;;
64342;SDS011;50675;53.530;-6.312;2023-04-20T11:39:05;7.95;;;3.22;;
64342;SDS011;50675;53.530;-6.312;2023-04-20T11:49:55;9.82;;;4.60;;
64342;SDS011;50675;53.530;-6.312;2023-04-20T11:53:45;14.98;;;4.47;;
64342;SDS011;50675;53.530;-6.312;2023-04-20T13:45:34;8.10;;;4.53;;
64342;SDS011;50675;53.530;-6.312;2023-04-20T13:48:00;11.90;;;4.57;;
64342;SDS011;50675;53.530;-6.312;2023-04-20T13:50:26;12.13;;;4.80;;
64342;SDS011;50675;53.530;-6.312;2023-04-20T13:52:52;11.05;;;4.07;;
64342;SDS011;50675;53.530;-6.312;2023-04-20T13:55:19;8.35;;;4.32;;
64342;SDS011;50675;53.530;-6.312;2023-04-20T13:57:45;9.60;;;4.25;;
64342;SDS011;50675;53.530;-6.312;2023-04-20T14:00:11;11.48;;;5.28;;
64342;SDS011;50675;53.530;-6.312;2023-04-20T14:02:37;16.00;;;4.82;;
64342;SDS011;50675;53.530;-6.312;2023-04-20T14:05:03;10.65;;;4.38;;
64342;SDS011;50675;53.530;-6.312;2023-04-20T14:56:05;8.38;;;3.72;;
64342;SDS011;50675;53.530;-6.312;2023-04-20T15:02:09;10.25;;;4.03;;
64342;SDS011;50675;53.530;-6.312;2023-04-20T15:08:17;12.63;;;4.10;;
64342;SDS011;50675;53.530;-6.312;2023-04-20T15:15:07;6.47;;;3.58;;
64342;SDS011;50675;53.530;-6.312;2023-04-20T15:17:34;8.77;;;3.53;;
64342;SDS011;50675;53.530;-6.312;2023-04-20T15:20:01;8.35;;;4.13;;
64342;SDS011;50675;53.530;-6.312;2023-04-20T15:22:28;9.48;;;3.67;;
64342;SDS011;50675;53.530;-6.312;2023-04-20T15:24:53;10.00;;;3.83;;
64342;SDS011;50675;53.530;-6.312;2023-04-20T15:27:19;5.95;;;3.20;;
64342;SDS011;50675;53.530;-6.312;2023-04-20T15:29:47;7.93;;;3.70;;
64342;SDS011;50675;53.530;-6.312;2023-04-20T16:11:37;7.80;;;3.80;;
64342;SDS011;50675;53.530;-6.312;2023-04-20T16:14:58;5.28;;;3.17;;
64342;SDS011;50675;53.530;-6.312;2023-04-20T16:28:41;8.07;;;3.10;;
64342;SDS011;50675;53.530;-6.312;2023-04-20T16:38:42;5.30;;;2.75;;
64342;SDS011;50675;53.530;-6.312;2023-04-20T16:41:42;8.93;;;3.35;;
64342;SDS011;50675;53.530;-6.312;2023-04-20T16:44:57;4.32;;;2.38;;
64342;SDS011;50675;53.530;-6.312;2023-04-20T16:47:45;5.53;;;3.03;;
64342;SDS011;50675;53.530;-6.312;2023-04-20T16:50:42;6.88;;;2.63;;
64342;SDS011;50675;53.530;-6.312;2023-04-20T16:54:18;5.80;;;3.00;;
64342;SDS011;50675;53.530;-6.312;2023-04-20T16:57:04;5.25;;;2.63;;
64342;SDS011;50675;53.530;-6.312;2023-04-20T17:00:29;5.47;;;2.80;;
64342;SDS011;50675;53.530;-6.312;2023-04-20T17:03:33;12.60;;;3.10;;
64342;SDS011;50675;53.530;-6.312;2023-04-20T17:06:03;5.93;;;2.70;;
64342;SDS011;50675;53.530;-6.312;2023-04-20T17:08:49;8.93;;;3.00;;
64342;SDS011;50675;53.530;-6.312;2023-04-20T17:11:23;6.28;;;2.90;;
64342;SDS011;50675;53.530;-6.312;2023-04-20T17:13:52;6.35;;;2.90;;
64342;SDS011;50675;53.530;-6.312;2023-04-20T17:16:21;6.30;;;2.88;;
64342;SDS011;50675;53.530;-6.312;2023-04-20T17:18:47;4.90;;;2.45;;
64342;SDS011;50675;53.530;-6.312;2023-04-20T17:21:28;8.27;;;2.80;;
64342;SDS011;50675;53.530;-6.312;2023-04-20T17:24:21;6.10;;;2.72;;
64342;SDS011;50675;53.530;-6.312;2023-04-20T17:27:15;5.65;;;2.88;;
64342;SDS011;50675;53.530;-6.312;2023-04-20T17:30:02;5.03;;;2.70;;
64342;SDS011;50675;53.530;-6.312;2023-04-20T17:32:48;5.93;;;2.72;;
64342;SDS011;50675;53.530;-6.312;2023-04-20T17:39:34;5.97;;;2.90;;
64342;SDS011;50675;53.530;-6.312;2023-04-20T17:42:31;4.78;;;2.55;;
64342;SDS011;50675;53.530;-6.312;2023-04-20T17:45:45;4.15;;;2.60;;
64342;SDS011;50675;53.530;-6.312;2023-04-20T17:48:24;6.65;;;2.78;;
64342;SDS011;50675;53.530;-6.312;2023-04-20T17:51:15;8.35;;;2.90;;
64342;SDS011;50675;53.530;-6.312;2023-04-20T17:53:49;8.13;;;2.97;;
64342;SDS011;50675;53.530;-6.312;2023-04-20T17:56:47;6.85;;;2.85;;
64342;SDS011;50675;53.530;-6.312;2023-04-20T17:59:40;5.47;;;2.92;;
64342;SDS011;50675;53.530;-6.312;2023-04-20T18:02:28;4.50;;;2.50;;
64342;SDS011;50675;53.530;-6.312;2023-04-20T18:05:23;10.68;;;3.53;;
64342;SDS011;50675;53.530;-6.312;2023-04-20T18:08:05;6.57;;;3.08;;
64342;SDS011;50675;53.530;-6.312;2023-04-20T18:37:19;5.63;;;3.05;;
64342;SDS011;50675;53.530;-6.312;2023-04-20T18:39:58;7.78;;;3.58;;
64342;SDS011;50675;53.530;-6.312;2023-04-20T18:51:19;7.63;;;3.45;;
